Time;durP1;ratioP1;P1;durP2;ratioP2;P2;SDS_P1;SDS_P2;PMS_P1;PMS_P2;Temp;Humidity;BMP_temperature;BMP_pressure;BME280_temperature;BME280_humidity;BME280_pressure;Samples;Min_cycle;Max_cycle;Signal;HPM_P1;HPM_P2
2023/10/27 00:00:45;;;;;;;22.65;12.45;;;10.20;99.90;;;;;;4939617;28;87646;-35
2023/10/27 00:03:10;;;;;;;19.92;12.07;;;10.10;99.90;;;;;;4940038;28;91020;-35
2023/10/27 00:05:36;;;;;;;23.13;13.15;;;10.10;99.90;;;;;;4939110;28;90919;-35
2023/10/27 00:08:01;;;;;;;21.55;13.60;;;10.10;99.90;;;;;;4939912;28;90520;-33
2023/10/27 00:10:28;;;;;;;19.52;11.35;;;10.20;99.90;;;;;;4932081;28;89491;-33
2023/10/27 00:12:54;;;;;;;19.80;11.95;;;10.20;99.90;;;;;;4946801;28;88453;-33
2023/10/27 00:15:20;;;;;;;23.88;11.90;;;10.10;99.90;;;;;;4939135;28;89794;-35
2023/10/27 00:17:46;;;;;;;20.48;10.65;;;10.10;99.90;;;;;;4939384;28;88984;-33
2023/10/27 00:20:12;;;;;;;21.92;13.77;;;10.00;99.90;;;;;;4938696;28;88851;-36
2023/10/27 00:22:38;;;;;;;19.88;11.00;;;10.00;99.90;;;;;;4939051;28;90398;-34
2023/10/27 00:25:04;;;;;;;22.50;11.57;;;9.90;99.90;;;;;;4939459;28;90051;-33
2023/10/27 00:27:29;;;;;;;17.25;10.63;;;9.90;99.90;;;;;;4939502;28;89832;-32
2023/10/27 00:29:55;;;;;;;16.95;12.57;;;9.80;99.90;;;;;;4954366;28;89656;-35
2023/10/27 00:32:20;;;;;;;20.25;11.43;;;9.80;99.90;;;;;;4951954;28;90423;-34
2023/10/27 00:34:46;;;;;;;17.85;10.40;;;9.90;99.90;;;;;;4951457;28;90031;-35
2023/10/27 00:37:12;;;;;;;20.02;10.43;;;9.90;99.90;;;;;;4940199;28;88164;-33
2023/10/27 00:39:39;;;;;;;14.45;9.25;;;9.90;99.90;;;;;;4950842;28;90521;-37
2023/10/27 00:42:05;;;;;;;18.02;11.88;;;9.80;99.90;;;;;;4927093;28;88951;-37
2023/10/27 00:44:31;;;;;;;19.15;9.23;;;9.80;99.90;;;;;;4939391;28;90614;-34
2023/10/27 00:46:57;;;;;;;16.27;10.00;;;9.90;99.90;;;;;;4959445;28;89936;-33
2023/10/27 00:49:24;;;;;;;21.17;10.48;;;9.80;99.90;;;;;;4958147;28;89790;-35
2023/10/27 00:51:50;;;;;;;14.45;9.75;;;9.80;99.90;;;;;;4950874;28;90228;-32
2023/10/27 00:54:18;;;;;;;16.23;9.30;;;9.90;99.90;;;;;;4937808;28;91076;-33
2023/10/27 00:56:49;;;;;;;27.63;22.33;;;9.90;99.90;;;;;;4939267;28;91404;-34
2023/10/27 00:59:15;;;;;;;16.08;9.00;;;9.90;99.90;;;;;;4938618;28;89248;-33
2023/10/27 01:01:44;;;;;;;14.25;10.20;;;9.90;99.90;;;;;;4948543;28;89457;-33
2023/10/27 01:04:09;;;;;;;16.95;8.77;;;9.90;99.90;;;;;;4947762;28;89898;-34
2023/10/27 01:06:35;;;;;;;12.40;9.75;;;9.90;99.90;;;;;;4948968;28;89465;-32
2023/10/27 01:09:01;;;;;;;15.32;9.80;;;9.90;99.90;;;;;;4946990;28;89061;-35
2023/10/27 01:11:29;;;;;;;13.80;8.38;;;9.90;99.90;;;;;;4943449;28;90258;-33
2023/10/27 01:13:55;;;;;;;14.32;9.38;;;9.80;99.90;;;;;;4946771;28;89466;-32
2023/10/27 01:16:21;;;;;;;18.77;10.65;;;9.80;99.90;;;;;;4956944;28;90047;-36
2023/10/27 01:18:47;;;;;;;18.45;10.07;;;9.80;99.90;;;;;;4937932;28;90502;-32
2023/10/27 01:21:13;;;;;;;17.13;10.02;;;9.90;99.90;;;;;;4937268;28;90105;-36
2023/10/27 01:23:38;;;;;;;16.17;10.02;;;9.90;99.90;;;;;;4938411;28;88645;-35
2023/10/27 01:26:04;;;;;;;16.02;9.93;;;9.90;99.90;;;;;;4938945;28;90010;-35
2023/10/27 01:28:31;;;;;;;20.30;9.40;;;9.80;99.90;;;;;;4942413;28;88511;-33
2023/10/27 01:30:56;;;;;;;17.33;10.35;;;9.80;99.90;;;;;;4950163;28;90314;-33
2023/10/27 01:33:23;;;;;;;18.73;10.05;;;9.80;99.90;;;;;;4938465;28;88433;-36
2023/10/27 01:35:50;;;;;;;20.67;10.00;;;9.80;99.90;;;;;;4942329;28;89390;-33
2023/10/27 01:38:16;;;;;;;13.40;9.23;;;9.70;99.90;;;;;;4954987;28;89491;-34
2023/10/27 01:40:41;;;;;;;15.55;8.48;;;9.70;99.90;;;;;;4950212;28;89523;-34
2023/10/27 01:43:07;;;;;;;15.45;9.25;;;9.70;99.90;;;;;;4946903;28;91055;-33
2023/10/27 01:45:32;;;;;;;12.10;7.85;;;9.70;99.90;;;;;;4953661;28;90966;-32
2023/10/27 01:47:58;;;;;;;15.07;9.18;;;9.70;99.90;;;;;;4942043;28;89595;-33
2023/10/27 01:50:24;;;;;;;17.08;9.55;;;9.80;99.90;;;;;;4942552;28;90406;-35
2023/10/27 01:52:49;;;;;;;20.15;12.65;;;9.80;99.90;;;;;;4943830;28;89763;-34
2023/10/27 01:55:15;;;;;;;15.07;10.45;;;9.80;99.90;;;;;;4961288;28;89573;-33
2023/10/27 01:57:41;;;;;;;18.10;9.82;;;9.80;99.90;;;;;;4958609;28;89693;-32
2023/10/27 02:00:07;;;;;;;30.40;10.45;;;9.90;99.90;;;;;;4943480;28;89849;-35
2023/10/27 02:02:34;;;;;;;16.80;11.20;;;9.90;99.90;;;;;;4953607;28;89606;-35
2023/10/27 02:05:02;;;;;;;16.70;10.82;;;9.90;99.90;;;;;;4942043;28;89615;-34
2023/10/27 02:07:28;;;;;;;15.20;10.10;;;10.00;99.90;;;;;;4958354;28;90114;-35
2023/10/27 02:09:54;;;;;;;14.38;9.65;;;10.00;99.90;;;;;;4958334;28;90068;-34
2023/10/27 02:12:20;;;;;;;11.90;8.27;;;10.00;99.90;;;;;;4941873;28;89187;-36
2023/10/27 02:14:45;;;;;;;18.15;10.52;;;9.90;99.90;;;;;;4942087;28;89052;-32
2023/10/27 02:17:11;;;;;;;19.67;10.75;;;10.00;99.90;;;;;;4941669;28;90018;-33
2023/10/27 02:19:37;;;;;;;17.55;11.02;;;9.90;99.90;;;;;;4941631;28;90355;-36
2023/10/27 02:22:02;;;;;;;19.50;10.30;;;9.90;99.90;;;;;;4940486;28;88487;-36
2023/10/27 02:24:28;;;;;;;13.75;8.63;;;9.90;99.90;;;;;;4941218;28;89043;-35
2023/10/27 02:26:54;;;;;;;14.05;9.55;;;9.90;99.90;;;;;;4941963;28;88678;-33
2023/10/27 02:29:20;;;;;;;16.15;11.52;;;10.00;99.90;;;;;;4949696;28;89795;-35
2023/10/27 02:31:45;;;;;;;20.40;11.70;;;10.00;99.90;;;;;;4945508;28;90218;-33
2023/10/27 02:34:11;;;;;;;16.42;10.93;;;10.00;99.90;;;;;;4949117;28;91058;-32
2023/10/27 02:36:37;;;;;;;20.10;11.25;;;10.00;99.90;;;;;;4957787;28;90207;-34
2023/10/27 02:39:02;;;;;;;20.15;10.38;;;10.00;99.90;;;;;;4949592;28;89501;-32
2023/10/27 02:41:28;;;;;;;18.38;10.40;;;10.00;99.90;;;;;;4959122;28;89784;-36
2023/10/27 02:43:54;;;;;;;17.13;8.60;;;10.10;99.90;;;;;;4951164;28;89566;-32
2023/10/27 02:46:19;;;;;;;17.20;10.25;;;10.00;99.90;;;;;;4953180;28;89719;-31
2023/10/27 02:48:45;;;;;;;18.45;8.57;;;10.00;99.90;;;;;;4940318;28;91296;-34
2023/10/27 02:51:12;;;;;;;20.33;12.45;;;10.00;99.90;;;;;;4942674;28;90108;-31
2023/10/27 02:53:37;;;;;;;19.65;11.85;;;10.00;99.90;;;;;;4950734;28;88946;-36
2023/10/27 02:56:09;;;;;;;17.25;11.65;;;10.00;99.90;;;;;;4952645;28;89922;-34
2023/10/27 02:58:36;;;;;;;20.98;10.95;;;10.00;99.90;;;;;;4940731;28;91353;-33
2023/10/27 03:01:14;;;;;;;18.27;10.38;;;10.00;99.90;;;;;;4952211;28;89575;-33
2023/10/27 03:03:40;;;;;;;12.77;10.00;;;10.00;99.90;;;;;;4922804;28;90679;-35
2023/10/27 03:06:05;;;;;;;21.08;11.43;;;10.10;99.90;;;;;;4958044;28;89921;-36
2023/10/27 03:08:32;;;;;;;24.75;11.23;;;10.00;99.90;;;;;;4951269;28;89111;-34
2023/10/27 03:10:58;;;;;;;16.88;11.10;;;10.00;99.90;;;;;;4949630;28;90024;-32
2023/10/27 03:13:24;;;;;;;18.25;11.00;;;10.00;99.90;;;;;;4940160;28;89734;-37
2023/10/27 03:15:49;;;;;;;13.88;9.77;;;9.90;99.90;;;;;;4940807;28;88621;-35
2023/10/27 03:18:15;;;;;;;16.40;10.27;;;9.90;99.90;;;;;;4940688;28;91144;-36
2023/10/27 03:20:40;;;;;;;19.02;9.15;;;9.90;99.90;;;;;;4919085;28;90656;-35
2023/10/27 03:23:06;;;;;;;16.63;8.45;;;9.90;99.90;;;;;;4938612;28;90627;-31
2023/10/27 03:25:32;;;;;;;17.67;10.05;;;9.90;99.90;;;;;;4941442;28;89163;-33
2023/10/27 03:27:57;;;;;;;24.98;10.40;;;9.80;99.90;;;;;;4940213;28;89901;-34
2023/10/27 03:30:24;;;;;;;14.00;9.25;;;9.80;99.90;;;;;;4953675;28;89986;-36
2023/10/27 03:32:50;;;;;;;16.65;9.27;;;9.80;99.90;;;;;;4940413;28;90210;-32
2023/10/27 03:35:16;;;;;;;15.82;8.38;;;9.80;99.90;;;;;;4940694;28;90397;-31
2023/10/27 03:37:41;;;;;;;17.63;11.82;;;9.80;99.90;;;;;;4923077;28;89871;-35
2023/10/27 03:40:07;;;;;;;18.02;8.60;;;9.80;99.90;;;;;;4939134;28;88007;-36
2023/10/27 03:42:33;;;;;;;16.58;8.70;;;9.80;99.90;;;;;;4941345;28;88834;-34
2023/10/27 03:44:59;;;;;;;14.32;8.57;;;9.80;99.90;;;;;;4940075;28;89279;-33
2023/10/27 03:47:25;;;;;;;15.43;8.75;;;9.80;99.90;;;;;;4939905;28;90601;-33
2023/10/27 03:49:51;;;;;;;16.00;9.70;;;9.80;99.90;;;;;;4939469;28;89793;-33
2023/10/27 03:52:17;;;;;;;11.82;8.85;;;9.70;99.90;;;;;;4940561;28;90932;-35
2023/10/27 03:54:43;;;;;;;15.27;7.88;;;9.60;99.90;;;;;;4940817;28;89211;-34
2023/10/27 03:57:08;;;;;;;15.43;8.20;;;9.60;99.90;;;;;;4940600;28;90130;-35
2023/10/27 03:59:34;;;;;;;11.57;7.53;;;9.60;99.90;;;;;;4940049;28;89597;-32
2023/10/27 04:02:00;;;;;;;17.63;10.30;;;9.60;99.90;;;;;;4941138;28;90481;-35
2023/10/27 04:04:25;;;;;;;14.68;9.60;;;9.60;99.90;;;;;;4940232;28;88752;-36
2023/10/27 04:06:53;;;;;;;19.35;10.60;;;9.70;99.90;;;;;;4940548;28;89347;-36
2023/10/27 04:09:20;;;;;;;15.18;10.27;;;9.70;99.90;;;;;;4949773;28;90882;-32
2023/10/27 04:11:46;;;;;;;15.25;9.00;;;9.70;99.90;;;;;;4941258;28;90258;-34
2023/10/27 04:14:12;;;;;;;20.80;10.63;;;9.70;99.90;;;;;;4940602;28;90077;-35
2023/10/27 04:16:37;;;;;;;18.67;10.38;;;9.70;99.90;;;;;;4952883;28;89315;-33
2023/10/27 04:19:03;;;;;;;14.95;7.78;;;9.70;99.90;;;;;;4949668;28;89931;-32
2023/10/27 04:21:29;;;;;;;13.13;7.88;;;9.70;99.90;;;;;;4946141;28;90333;-34
2023/10/27 04:23:55;;;;;;;14.15;8.00;;;9.70;99.90;;;;;;4948587;28;89861;-32
2023/10/27 04:26:20;;;;;;;19.90;10.68;;;9.70;99.90;;;;;;4940097;28;89772;-34
2023/10/27 04:28:46;;;;;;;14.82;7.32;;;9.70;99.90;;;;;;4943000;28;90152;-34
2023/10/27 04:31:12;;;;;;;12.93;9.05;;;9.70;99.90;;;;;;4949036;28;90593;-35
2023/10/27 04:33:37;;;;;;;14.00;9.25;;;9.60;99.90;;;;;;4938247;28;88718;-34
2023/10/27 04:36:06;;;;;;;13.00;7.93;;;9.60;99.90;;;;;;4938737;28;90807;-35
2023/10/27 04:38:31;;;;;;;14.98;8.85;;;9.60;99.90;;;;;;4938625;28;89491;-32
2023/10/27 04:40:57;;;;;;;15.80;9.07;;;9.60;99.90;;;;;;4940146;28;89656;-34
2023/10/27 04:43:22;;;;;;;14.88;9.18;;;9.60;99.90;;;;;;4939079;28;89168;-33
2023/10/27 04:45:48;;;;;;;17.13;7.55;;;9.50;99.90;;;;;;4940282;28;89545;-35
2023/10/27 04:48:14;;;;;;;16.20;9.45;;;9.50;99.90;;;;;;4940075;28;89708;-32
2023/10/27 04:50:41;;;;;;;16.45;8.68;;;9.50;99.90;;;;;;4939560;28;89664;-36
2023/10/27 04:53:07;;;;;;;15.43;9.60;;;9.50;99.90;;;;;;4934794;28;90367;-36
2023/10/27 04:55:33;;;;;;;15.35;8.77;;;9.50;99.90;;;;;;4938762;28;90204;-36
2023/10/27 04:57:58;;;;;;;22.70;11.10;;;9.50;99.90;;;;;;4937682;28;90045;-34
2023/10/27 05:00:24;;;;;;;18.10;9.77;;;9.40;99.90;;;;;;4937842;28;92073;-33
2023/10/27 05:02:53;;;;;;;10.27;7.45;;;9.40;99.90;;;;;;4938330;28;89930;-34
2023/10/27 05:05:20;;;;;;;12.70;7.95;;;9.40;99.90;;;;;;4938439;28;90307;-36
2023/10/27 05:07:47;;;;;;;16.55;9.35;;;9.40;99.90;;;;;;4937768;28;90113;-34
2023/10/27 05:10:13;;;;;;;15.68;9.32;;;9.40;99.90;;;;;;4950495;28;91068;-33
2023/10/27 05:12:38;;;;;;;21.02;8.10;;;9.40;99.90;;;;;;4937891;28;88997;-36
2023/10/27 05:15:05;;;;;;;21.92;10.32;;;9.40;99.90;;;;;;4938535;28;90533;-33
2023/10/27 05:17:34;;;;;;;13.20;7.72;;;9.40;99.90;;;;;;4945115;28;88360;-33
2023/10/27 05:20:01;;;;;;;15.57;10.20;;;9.40;99.90;;;;;;4936505;28;88322;-35
2023/10/27 05:22:26;;;;;;;15.48;9.55;;;9.40;99.90;;;;;;4937110;28;88811;-32
2023/10/27 05:24:52;;;;;;;13.13;8.75;;;9.30;99.90;;;;;;4937402;28;90108;-35
2023/10/27 05:27:17;;;;;;;16.17;9.00;;;9.30;99.90;;;;;;4938307;28;90594;-34
2023/10/27 05:29:43;;;;;;;21.13;9.60;;;9.30;99.90;;;;;;4949535;28;89040;-36
2023/10/27 05:32:12;;;;;;;15.48;7.93;;;9.30;99.90;;;;;;4938371;28;90797;-35
2023/10/27 05:34:38;;;;;;;18.13;10.82;;;9.30;99.90;;;;;;4948907;28;89001;-33
2023/10/27 05:37:03;;;;;;;17.42;8.98;;;9.40;99.90;;;;;;4949600;28;90209;-31
2023/10/27 05:39:29;;;;;;;13.68;8.73;;;9.40;99.90;;;;;;4950121;28;90179;-34
2023/10/27 05:41:55;;;;;;;15.23;8.65;;;9.30;99.90;;;;;;4943543;28;88112;-36
2023/10/27 05:44:20;;;;;;;12.95;8.68;;;9.30;99.90;;;;;;4945440;28;89837;-35
2023/10/27 05:46:46;;;;;;;14.32;8.73;;;9.30;99.90;;;;;;4936191;28;90707;-36
2023/10/27 05:49:12;;;;;;;16.98;10.50;;;9.40;99.90;;;;;;4938081;28;90436;-36
2023/10/27 05:51:38;;;;;;;19.00;11.35;;;9.40;99.90;;;;;;4941463;28;87961;-34
2023/10/27 05:54:05;;;;;;;14.83;9.10;;;9.40;99.90;;;;;;4702630;22;8719101;-36
2023/10/27 05:56:30;;;;;;;16.40;9.15;;;9.40;99.90;;;;;;4958079;28;90419;-32
2023/10/27 05:58:56;;;;;;;14.00;9.02;;;9.50;99.90;;;;;;4956877;28;89708;-35
2023/10/27 06:01:22;;;;;;;16.83;9.88;;;9.50;99.90;;;;;;4962655;28;89464;-35
2023/10/27 06:03:48;;;;;;;14.70;8.38;;;9.60;99.90;;;;;;4964313;28;89772;-33
2023/10/27 06:06:14;;;;;;;17.75;10.30;;;9.50;99.90;;;;;;4963496;28;90113;-35
2023/10/27 06:08:44;;;;;;;19.00;9.90;;;9.50;99.90;;;;;;4967632;28;89828;-37
2023/10/27 06:11:11;;;;;;;17.40;10.38;;;9.50;99.90;;;;;;4957565;28;89169;-35
2023/10/27 06:13:37;;;;;;;15.80;10.05;;;9.50;99.90;;;;;;4950541;28;89050;-35
2023/10/27 06:16:04;;;;;;;17.58;9.60;;;9.50;99.90;;;;;;4959760;28;90341;-37
2023/10/27 06:18:30;;;;;;;17.45;8.80;;;9.60;99.90;;;;;;4971077;28;89861;-35
2023/10/27 06:20:55;;;;;;;14.88;9.02;;;9.50;99.90;;;;;;4946355;28;89494;-32
2023/10/27 06:23:21;;;;;;;15.90;10.60;;;9.50;99.90;;;;;;4959170;28;89441;-35
2023/10/27 06:25:46;;;;;;;14.45;8.27;;;9.40;99.90;;;;;;4956694;28;90226;-36
2023/10/27 06:28:12;;;;;;;20.52;9.05;;;9.40;99.90;;;;;;4969352;28;89079;-36
2023/10/27 06:30:38;;;;;;;14.88;8.32;;;9.40;99.90;;;;;;4968127;28;89789;-33
2023/10/27 06:33:03;;;;;;;19.70;9.32;;;9.40;99.90;;;;;;4959210;28;89520;-33
2023/10/27 06:35:29;;;;;;;15.77;8.25;;;9.30;99.90;;;;;;4966360;28;90277;-34
2023/10/27 06:37:55;;;;;;;19.40;9.73;;;9.30;99.90;;;;;;4958254;28;89855;-36
2023/10/27 06:40:22;;;;;;;18.05;9.98;;;9.30;99.90;;;;;;4952340;28;89171;-35
2023/10/27 06:42:48;;;;;;;17.00;9.17;;;9.30;99.90;;;;;;4946812;28;89716;-33
2023/10/27 06:45:14;;;;;;;14.80;9.70;;;9.30;99.90;;;;;;4962398;28;90343;-33
2023/10/27 06:47:40;;;;;;;14.52;7.78;;;9.30;99.90;;;;;;4961909;28;89528;-33
2023/10/27 06:50:06;;;;;;;19.05;10.13;;;9.30;99.90;;;;;;4957776;28;89447;-36
2023/10/27 06:52:33;;;;;;;14.93;8.93;;;9.40;99.90;;;;;;4957470;28;88885;-36
2023/10/27 06:54:59;;;;;;;15.93;9.88;;;9.40;99.90;;;;;;4956901;28;90085;-33
2023/10/27 06:57:25;;;;;;;16.65;9.98;;;9.40;99.90;;;;;;4949958;28;90895;-35
2023/10/27 06:59:55;;;;;;;17.52;11.60;;;9.40;99.90;;;;;;4965662;28;89516;-36
2023/10/27 07:02:20;;;;;;;16.52;11.27;;;9.30;99.90;;;;;;4963057;28;90028;-33
2023/10/27 07:04:46;;;;;;;18.02;11.32;;;9.30;99.90;;;;;;4957379;28;90639;-33
2023/10/27 07:07:15;;;;;;;22.02;11.80;;;9.40;99.90;;;;;;4956898;28;89367;-31
2023/10/27 07:09:41;;;;;;;12.75;8.25;;;9.40;99.90;;;;;;4964387;28;89573;-35
2023/10/27 07:12:08;;;;;;;18.88;11.73;;;9.40;99.90;;;;;;4958495;28;87836;-34
2023/10/27 07:14:35;;;;;;;18.52;11.82;;;9.40;99.90;;;;;;4969920;28;89732;-35
2023/10/27 07:17:01;;;;;;;31.67;19.40;;;9.40;99.90;;;;;;4957300;28;89892;-35
2023/10/27 07:19:27;;;;;;;18.52;9.52;;;9.50;99.90;;;;;;4945422;28;89798;-34
2023/10/27 07:21:52;;;;;;;16.40;9.98;;;9.50;99.90;;;;;;4956034;28;88399;-33
2023/10/27 07:24:18;;;;;;;17.38;9.02;;;9.60;99.90;;;;;;4968920;28;90521;-37
2023/10/27 07:26:44;;;;;;;17.33;11.57;;;9.50;99.90;;;;;;4946462;28;89501;-33
2023/10/27 07:29:09;;;;;;;21.75;10.70;;;9.50;99.90;;;;;;4971560;28;89370;-34
2023/10/27 07:31:35;;;;;;;16.50;9.20;;;9.50;99.90;;;;;;4975620;28;89408;-33
2023/10/27 07:34:01;;;;;;;12.93;7.82;;;9.60;99.90;;;;;;4952766;28;89470;-33
2023/10/27 07:36:27;;;;;;;19.17;9.10;;;9.60;99.90;;;;;;4952193;28;90924;-33
2023/10/27 07:38:53;;;;;;;17.33;9.23;;;9.60;99.90;;;;;;4958838;28;90358;-35
2023/10/27 07:41:19;;;;;;;14.13;8.48;;;9.60;99.90;;;;;;4964543;28;89100;-35
2023/10/27 07:43:44;;;;;;;16.60;9.55;;;9.70;99.90;;;;;;4965933;28;89727;-33
2023/10/27 07:46:11;;;;;;;17.52;9.88;;;9.70;99.90;;;;;;4950758;28;88969;-36
2023/10/27 07:48:37;;;;;;;17.35;9.50;;;9.70;99.90;;;;;;4963015;28;90432;-36
2023/10/27 07:51:03;;;;;;;16.92;9.55;;;9.60;99.90;;;;;;4961474;28;88825;-32
2023/10/27 07:53:29;;;;;;;22.38;8.65;;;9.70;99.90;;;;;;4937734;28;91317;-34
2023/10/27 07:55:56;;;;;;;16.13;9.98;;;9.70;99.90;;;;;;4955493;28;89788;-36
2023/10/27 07:58:25;;;;;;;14.75;11.07;;;9.70;99.90;;;;;;4955078;28;89522;-33
2023/10/27 08:00:52;;;;;;;17.83;9.40;;;9.70;99.90;;;;;;4966621;28;89792;-32
2023/10/27 08:03:18;;;;;;;20.02;10.07;;;9.60;99.90;;;;;;4965814;28;90187;-33
2023/10/27 08:05:44;;;;;;;15.43;8.50;;;9.70;99.90;;;;;;4967804;28;91332;-34
2023/10/27 08:08:10;;;;;;;16.63;8.98;;;9.70;99.90;;;;;;4958902;28;90410;-32
2023/10/27 08:10:39;;;;;;;17.15;9.75;;;9.70;99.90;;;;;;4972231;28;89040;-34
2023/10/27 08:13:08;;;;;;;18.50;10.65;;;9.70;99.90;;;;;;4957997;28;89667;-34
2023/10/27 08:15:33;;;;;;;16.85;9.30;;;9.80;99.90;;;;;;4958690;28;89348;-33
2023/10/27 08:18:00;;;;;;;15.57;8.23;;;9.70;99.90;;;;;;4973786;28;90157;-35
2023/10/27 08:20:26;;;;;;;14.27;8.68;;;9.80;99.90;;;;;;4970821;28;88874;-34
2023/10/27 08:22:52;;;;;;;15.57;10.73;;;9.80;99.90;;;;;;4970169;28;89234;-35
2023/10/27 08:25:22;;;;;;;18.40;8.90;;;9.80;99.90;;;;;;4960962;28;89517;-33
2023/10/27 08:27:48;;;;;;;17.02;10.02;;;9.80;99.90;;;;;;4971229;28;90120;-33
2023/10/27 08:30:14;;;;;;;19.20;9.35;;;9.80;99.90;;;;;;4974559;28;88943;-32
2023/10/27 08:32:40;;;;;;;16.33;11.23;;;9.90;99.90;;;;;;4940169;28;90008;-35
2023/10/27 08:35:06;;;;;;;17.17;8.45;;;9.80;99.90;;;;;;4952519;28;89875;-31
2023/10/27 08:37:32;;;;;;;16.17;9.52;;;9.80;99.90;;;;;;4939637;28;89371;-34
2023/10/27 08:39:58;;;;;;;15.98;9.50;;;9.90;99.90;;;;;;4946505;28;90168;-35
2023/10/27 08:42:27;;;;;;;20.13;9.38;;;9.90;99.90;;;;;;4939659;28;90246;-36
2023/10/27 08:44:54;;;;;;;14.52;9.25;;;9.90;99.90;;;;;;4952665;28;89633;-35
2023/10/27 08:47:21;;;;;;;16.17;9.43;;;9.90;99.90;;;;;;4939984;28;88885;-36
2023/10/27 08:49:47;;;;;;;15.77;10.75;;;9.90;99.90;;;;;;4940604;28;88344;-32
2023/10/27 08:52:14;;;;;;;20.58;10.18;;;9.90;99.90;;;;;;4948982;28;90084;-34
2023/10/27 08:54:41;;;;;;;12.75;8.95;;;10.00;99.90;;;;;;4953096;28;90681;-34
2023/10/27 08:57:08;;;;;;;15.18;9.95;;;10.00;99.90;;;;;;4950614;28;89151;-35
2023/10/27 08:59:35;;;;;;;18.92;10.75;;;10.00;99.90;;;;;;4946277;28;90137;-33
2023/10/27 09:02:01;;;;;;;14.15;8.52;;;10.10;99.90;;;;;;4955921;28;89286;-35
2023/10/27 09:04:27;;;;;;;14.10;11.63;;;10.10;99.90;;;;;;4946533;28;89092;-32
2023/10/27 09:06:53;;;;;;;18.70;11.38;;;10.10;99.90;;;;;;4940059;28;89731;-35
2023/10/27 09:09:19;;;;;;;15.38;8.23;;;10.10;99.90;;;;;;4957976;28;88988;-36
2023/10/27 09:11:49;;;;;;;14.95;8.57;;;10.10;99.90;;;;;;4954330;28;91986;-35
2023/10/27 09:14:19;;;;;;;14.05;8.82;;;10.20;99.90;;;;;;4949910;28;90233;-34
2023/10/27 09:16:45;;;;;;;18.42;9.05;;;10.20;99.90;;;;;;4953586;28;90084;-35
2023/10/27 09:19:25;;;;;;;12.20;8.30;;;10.20;99.90;;;;;;4945301;28;87988;-33
2023/10/27 09:21:52;;;;;;;14.65;8.60;;;10.20;99.90;;;;;;4978288;28;90362;-33
2023/10/27 09:24:29;;;;;;;14.45;8.20;;;10.30;99.90;;;;;;4966281;28;89125;-37
2023/10/27 09:26:57;;;;;;;15.75;9.25;;;10.30;99.90;;;;;;4958399;28;90222;-33
2023/10/27 09:29:23;;;;;;;18.17;11.43;;;10.20;99.90;;;;;;4967406;28;89552;-34
2023/10/27 09:31:50;;;;;;;14.27;7.80;;;10.30;99.90;;;;;;4961111;28;90452;-34
2023/10/27 09:34:25;;;;;;;14.02;8.85;;;10.30;99.90;;;;;;4959216;28;91742;-33
2023/10/27 09:36:57;;;;;;;12.90;7.82;;;10.30;99.90;;;;;;4970820;28;89230;-36
2023/10/27 09:39:24;;;;;;;16.50;10.60;;;10.30;99.90;;;;;;4959257;28;89487;-33
2023/10/27 09:42:04;;;;;;;15.45;10.43;;;10.30;99.90;;;;;;4956416;28;91537;-33
2023/10/27 09:44:45;;;;;;;13.32;8.98;;;10.40;99.90;;;;;;4957579;28;90406;-34
2023/10/27 09:47:16;;;;;;;16.95;10.27;;;10.40;99.90;;;;;;4958457;28;89021;-33
2023/10/27 09:49:47;;;;;;;13.98;9.50;;;10.40;99.90;;;;;;4972360;28;88095;-34
2023/10/27 09:52:19;;;;;;;22.08;10.13;;;10.40;99.90;;;;;;4966563;28;90770;-34
2023/10/27 09:54:45;;;;;;;14.55;9.38;;;10.40;99.90;;;;;;4961900;28;90031;-36
2023/10/27 09:57:12;;;;;;;14.07;10.00;;;10.40;99.90;;;;;;4980828;28;89171;-34
2023/10/27 09:59:38;;;;;;;13.52;8.85;;;10.50;99.90;;;;;;4961567;28;89000;-32
2023/10/27 10:02:06;;;;;;;14.88;9.20;;;10.40;99.90;;;;;;4942596;28;91455;-35
2023/10/27 10:04:50;;;;;;;18.60;9.83;;;10.50;99.90;;;;;;4965088;28;89471;-37
2023/10/27 10:07:41;;;;;;;15.45;11.18;;;10.50;99.90;;;;;;4966465;28;88625;-32
2023/10/27 10:10:34;;;;;;;13.32;8.52;;;10.50;99.90;;;;;;4973767;28;89207;-37
2023/10/27 10:13:14;;;;;;;12.52;7.88;;;10.50;99.90;;;;;;4960525;28;90369;-34
2023/10/27 10:15:42;;;;;;;19.17;10.45;;;10.50;99.90;;;;;;4970109;28;90413;-35
2023/10/27 10:18:21;;;;;;;17.90;12.63;;;10.50;99.90;;;;;;4975069;28;89938;-33
2023/10/27 10:20:52;;;;;;;18.10;12.00;;;10.40;99.90;;;;;;4971576;28;89316;-33
2023/10/27 10:23:19;;;;;;;15.07;9.45;;;10.50;99.90;;;;;;4960931;28;90248;-35
2023/10/27 10:25:52;;;;;;;19.00;10.73;;;10.50;99.90;;;;;;4973162;28;89766;-34
2023/10/27 10:28:17;;;;;;;16.42;9.75;;;10.50;99.90;;;;;;4947845;28;89988;-30
2023/10/27 10:30:45;;;;;;;31.23;11.13;;;10.50;99.90;;;;;;4966779;28;88629;-33
2023/10/27 10:33:16;;;;;;;18.40;11.20;;;10.50;99.90;;;;;;4941045;28;89212;-35
2023/10/27 10:35:42;;;;;;;16.23;11.27;;;10.50;99.90;;;;;;4978299;28;89702;-35
2023/10/27 10:38:19;;;;;;;15.82;11.52;;;10.50;99.90;;;;;;4976656;28;89325;-37
2023/10/27 10:41:01;;;;;;;15.23;9.07;;;10.50;99.90;;;;;;4949225;28;89287;-35
2023/10/27 10:43:32;;;;;;;14.65;8.98;;;10.60;99.90;;;;;;4975208;28;90790;-35
2023/10/27 10:45:59;;;;;;;22.55;9.85;;;10.60;99.90;;;;;;4979181;28;89622;-37
2023/10/27 10:48:26;;;;;;;21.77;12.87;;;10.50;99.90;;;;;;4960442;28;89375;-36
2023/10/27 10:50:55;;;;;;;19.27;9.07;;;10.50;99.90;;;;;;4941465;28;88892;-35
2023/10/27 10:53:24;;;;;;;16.63;10.45;;;10.50;99.90;;;;;;4970152;28;90405;-33
2023/10/27 10:55:50;;;;;;;;;;;10.50;99.90;;;;;;4970170;28;89813;-32
2023/10/27 10:58:26;;;;;;;16.13;9.63;;;10.60;99.90;;;;;;4961475;28;90500;-37
2023/10/27 11:00:55;;;;;;;18.90;10.52;;;10.60;99.90;;;;;;4959844;28;90777;-35
2023/10/27 11:03:23;;;;;;;18.17;10.73;;;10.60;99.90;;;;;;4959465;28;88928;-34
2023/10/27 11:05:54;;;;;;;16.77;11.45;;;10.70;99.90;;;;;;4970198;28;89870;-36
2023/10/27 11:08:27;;;;;;;20.73;11.35;;;10.70;99.90;;;;;;4969327;28;89429;-34
2023/10/27 11:11:18;;;;;;;14.65;8.93;;;10.70;99.90;;;;;;4970171;28;87737;-34
2023/10/27 11:13:52;;;;;;;18.85;11.38;;;10.70;99.90;;;;;;4940330;28;89541;-34
2023/10/27 11:16:21;;;;;;;16.50;10.85;;;10.60;99.90;;;;;;4941061;28;89628;-32
2023/10/27 11:18:49;;;;;;;17.88;11.40;;;10.60;99.90;;;;;;4940776;28;89909;-34
2023/10/27 11:21:18;;;;;;;19.42;11.90;;;10.70;99.90;;;;;;4955092;28;89879;-34
2023/10/27 11:23:45;;;;;;;19.73;11.75;;;10.60;99.90;;;;;;4950976;28;89482;-35
2023/10/27 11:26:11;;;;;;;13.68;10.70;;;10.60;99.90;;;;;;4941318;28;90467;-33
2023/10/27 11:28:38;;;;;;;17.23;10.63;;;10.60;99.90;;;;;;4944566;28;88797;-34
2023/10/27 11:31:19;;;;;;;19.00;12.32;;;10.70;99.90;;;;;;4978700;28;89496;-33
2023/10/27 11:34:05;;;;;;;16.50;10.38;;;10.70;99.90;;;;;;4947445;28;90489;-33
2023/10/27 11:36:34;;;;;;;20.17;12.95;;;10.80;99.90;;;;;;4958315;28;90155;-32
2023/10/27 11:39:21;;;;;;;19.27;12.05;;;10.60;99.90;;;;;;4939905;28;89055;-36
2023/10/27 11:42:07;;;;;;;20.60;12.03;;;10.70;99.90;;;;;;4952388;28;89075;-34
2023/10/27 11:44:36;;;;;;;23.45;13.48;;;10.70;99.90;;;;;;4940233;28;90174;-36
2023/10/27 11:47:01;;;;;;;;;;;10.80;99.90;;;;;;4953322;28;89498;-32
2023/10/27 11:49:28;;;;;;;18.17;11.25;;;10.80;99.90;;;;;;4954862;28;89986;-34
2023/10/27 11:51:56;;;;;;;17.67;11.02;;;10.80;99.90;;;;;;4940589;28;89573;-34
2023/10/27 11:54:25;;;;;;;18.17;12.45;;;10.70;99.90;;;;;;4954433;28;88340;-35
2023/10/27 11:56:51;;;;;;;17.33;10.82;;;10.70;99.90;;;;;;4960036;28;89980;-36
2023/10/27 11:59:18;;;;;;;18.65;11.30;;;10.80;99.90;;;;;;4969470;28;90052;-33
2023/10/27 12:01:44;;;;;;;17.17;14.20;;;10.80;99.90;;;;;;4958136;28;88589;-34
2023/10/27 12:04:10;;;;;;;21.35;12.73;;;10.80;99.90;;;;;;4976135;28;90959;-33
2023/10/27 12:06:43;;;;;;;21.13;13.52;;;10.80;99.90;;;;;;4958950;28;90539;-33
2023/10/27 12:09:11;;;;;;;18.92;11.73;;;10.80;99.90;;;;;;4950426;28;89296;-34
2023/10/27 12:11:37;;;;;;;;;;;10.80;99.90;;;;;;4969873;28;88817;-33
2023/10/27 12:14:03;;;;;;;20.15;12.15;;;10.80;99.90;;;;;;4941397;28;90465;-32
2023/10/27 12:16:29;;;;;;;19.30;13.07;;;10.80;99.90;;;;;;4939599;28;90076;-33
2023/10/27 12:18:56;;;;;;;23.05;13.70;;;10.80;99.90;;;;;;4946884;28;89221;-36
2023/10/27 12:21:26;;;;;;;19.55;11.55;;;10.70;99.90;;;;;;4949308;28;87853;-34
2023/10/27 12:23:53;;;;;;;18.77;12.10;;;10.70;99.90;;;;;;4949203;28;90724;-32
2023/10/27 12:26:20;;;;;;;23.58;14.82;;;10.70;99.90;;;;;;4942533;28;89334;-35
2023/10/27 12:28:46;;;;;;;16.23;11.07;;;10.70;99.90;;;;;;4953380;28;90607;-33
2023/10/27 12:31:13;;;;;;;21.45;14.15;;;10.60;99.90;;;;;;4950139;28;88136;-34
2023/10/27 12:33:39;;;;;;;17.95;10.82;;;10.70;99.90;;;;;;4948609;28;89775;-37
2023/10/27 12:36:09;;;;;;;21.35;12.85;;;10.70;99.90;;;;;;4948433;28;89810;-34
2023/10/27 12:38:35;;;;;;;22.75;12.57;;;10.70;99.90;;;;;;4956517;28;89472;-31